Time;durP1;ratioP1;P1;durP2;ratioP2;P2;SDS_P1;SDS_P2;PMS_P1;PMS_P2;Temp;Humidity;BMP_temperature;BMP_pressure;BME280_temperature;BME280_humidity;BME280_pressure;Samples;Min_cycle;Max_cycle;Signal;HPM_P1;HPM_P2
2023/01/05 00:01:51;;;;;;;20.92;13.05;;;;;;;8.02;100.00;101478.69;5025410;28;20044;-77
2023/01/05 00:04:17;;;;;;;19.50;12.75;;;;;;;8.05;100.00;101476.28;5008695;28;20042;-77
2023/01/05 00:06:43;;;;;;;22.83;13.68;;;;;;;7.91;100.00;101459.97;5010021;28;20030;-77
2023/01/05 00:09:12;;;;;;;16.60;11.93;;;;;;;7.99;100.00;101484.50;5025471;28;20523;-76
2023/01/05 00:22:47;;;;;;;21.00;13.85;;;;;;;7.90;100.00;101465.91;5010479;28;20033;-77
2023/01/05 00:25:16;;;;;;;17.42;12.45;;;;;;;7.94;100.00;101473.06;5008226;28;20025;-78
2023/01/05 00:27:44;;;;;;;17.33;12.63;;;;;;;7.87;100.00;101464.03;5009754;28;20026;-76
2023/01/05 00:30:12;;;;;;;18.23;12.18;;;;;;;7.82;100.00;101462.84;5009629;28;20026;-77
2023/01/05 00:32:40;;;;;;;17.08;12.10;;;;;;;7.87;100.00;101456.31;5025196;28;20033;-77
2023/01/05 00:35:06;;;;;;;21.95;12.50;;;;;;;7.81;100.00;101448.22;5008870;28;20028;-78
2023/01/05 00:37:33;;;;;;;20.35;13.38;;;;;;;7.78;100.00;101454.06;5008913;28;20038;-79
2023/01/05 00:39:58;;;;;;;19.42;12.73;;;;;;;7.85;100.00;101459.59;5028203;28;20060;-81
2023/01/05 00:42:24;;;;;;;21.42;12.32;;;;;;;7.92;100.00;101465.25;5028772;28;20042;-81
2023/01/05 00:44:50;;;;;;;17.77;12.45;;;;;;;7.91;100.00;101445.47;5023850;28;20538;-82
2023/01/05 00:47:15;;;;;;;24.00;13.15;;;;;;;8.01;100.00;101454.66;4994710;28;20762;-78
2023/01/05 00:49:41;;;;;;;21.02;13.23;;;;;;;8.05;100.00;101458.28;4984993;28;20034;-77
2023/01/05 00:52:06;;;;;;;18.30;11.82;;;;;;;8.03;100.00;101444.47;5014392;28;20611;-80
2023/01/05 00:54:32;;;;;;;21.98;12.13;;;;;;;8.03;100.00;101445.34;5007210;28;20038;-80
2023/01/05 00:56:58;;;;;;;16.95;11.70;;;;;;;8.02;100.00;101438.41;5007515;28;20034;-80
2023/01/05 00:59:23;;;;;;;18.27;12.65;;;;;;;8.01;100.00;101439.22;5007684;28;20041;-80
2023/01/05 01:01:50;;;;;;;22.77;13.05;;;;;;;7.94;100.00;101430.22;5007565;28;20033;-80
2023/01/05 01:04:17;;;;;;;20.25;12.02;;;;;;;7.90;100.00;101430.81;5007456;28;20034;-80
2023/01/05 01:06:43;;;;;;;24.27;13.32;;;;;;;7.89;100.00;101426.47;5007834;28;20121;-78
2023/01/05 01:09:09;;;;;;;22.35;12.35;;;;;;;7.95;100.00;101428.56;4990979;28;20403;-80
2023/01/05 01:11:35;;;;;;;19.73;12.73;;;;;;;7.98;100.00;101428.72;5007643;28;20042;-82
2023/01/05 01:14:01;;;;;;;23.33;13.23;;;;;;;8.02;100.00;101424.66;5007545;28;20057;-82
2023/01/05 01:16:26;;;;;;;22.23;12.70;;;;;;;8.04;100.00;101418.81;5024139;28;20690;-79
2023/01/05 01:18:52;;;;;;;18.92;12.95;;;;;;;7.92;100.00;101398.41;5028486;28;20029;-81
2023/01/05 01:21:17;;;;;;;19.67;12.00;;;;;;;8.08;100.00;101414.78;5028726;28;20480;-79
2023/01/05 01:23:43;;;;;;;18.73;12.93;;;;;;;8.10;100.00;101408.03;5015879;28;20412;-77
2023/01/05 01:26:12;;;;;;;20.10;12.23;;;;;;;7.70;100.00;101331.91;5018191;28;20042;-78
2023/01/05 01:28:37;;;;;;;18.30;12.38;;;;;;;8.09;100.00;101389.13;5012201;28;20065;-78
2023/01/05 01:31:03;;;;;;;21.15;12.60;;;;;;;8.12;100.00;101391.00;5019534;28;20030;-78
2023/01/05 01:33:29;;;;;;;22.08;11.90;;;;;;;8.15;100.00;101396.34;5030764;28;20459;-78
2023/01/05 01:35:55;;;;;;;19.30;12.35;;;;;;;8.02;100.00;101365.53;5030728;28;20032;-78
2023/01/05 01:38:22;;;;;;;16.55;11.30;;;;;;;8.18;100.00;101385.38;5030639;28;20049;-78
2023/01/05 01:40:49;;;;;;;21.77;12.18;;;;;;;8.13;100.00;101376.47;5047097;28;20056;-79
2023/01/05 01:43:17;;;;;;;20.63;12.52;;;;;;;7.86;100.00;101333.75;5030607;28;20049;-78
2023/01/05 01:45:43;;;;;;;21.25;13.10;;;;;;;8.10;100.00;101370.34;5030759;28;20060;-78
2023/01/05 01:48:11;;;;;;;25.33;13.00;;;;;;;8.17;100.00;101375.88;5030591;28;20034;-78
2023/01/05 01:50:42;;;;;;;24.38;13.10;;;;;;;8.13;100.00;101361.94;5030755;28;20082;-78
2023/01/05 01:53:26;;;;;;;20.98;13.82;;;;;;;8.11;100.00;101366.06;5030452;28;20514;-78
2023/01/05 01:55:54;;;;;;;21.48;13.68;;;;;;;7.97;100.00;101336.06;5031653;28;20049;-78
2023/01/05 01:58:24;;;;;;;21.73;13.30;;;;;;;8.13;100.00;101361.94;5031574;28;20025;-78
2023/01/05 02:00:50;;;;;;;24.02;13.90;;;;;;;8.03;100.00;101345.03;5033123;28;20025;-79
2023/01/05 02:03:16;;;;;;;26.17;13.63;;;;;;;8.07;100.00;101353.84;5048189;28;20087;-78
2023/01/05 02:05:41;;;;;;;25.25;13.85;;;;;;;8.00;100.00;101342.28;5031658;28;20411;-78
2023/01/05 02:08:15;;;;;;;25.00;14.65;;;;;;;7.80;100.00;101323.06;5032628;28;20021;-78
2023/01/05 02:11:14;;;;;;;28.08;14.20;;;;;;;7.98;100.00;101350.72;5032445;28;20033;-78
2023/01/05 02:14:05;;;;;;;27.60;14.63;;;;;;;7.93;100.00;101347.84;5032469;28;20456;-79
2023/01/05 02:17:01;;;;;;;26.92;14.25;;;;;;;7.93;100.00;101345.28;5058848;28;20032;-78
2023/01/05 02:20:02;;;;;;;26.17;13.75;;;;;;;7.83;100.00;101343.81;5049959;28;20079;-78
2023/01/05 02:22:45;;;;;;;19.23;12.43;;;;;;;7.74;100.00;101351.84;5068061;28;20437;-78
2023/01/05 02:25:19;;;;;;;20.50;13.48;;;;;;;7.67;100.00;101329.13;5052791;28;20024;-78
2023/01/05 02:28:30;;;;;;;26.00;12.65;;;;;;;7.56;100.00;101336.19;5069978;28;20551;-79
2023/01/05 02:31:20;;;;;;;25.80;12.20;;;;;;;7.28;100.00;101297.56;5029912;28;20605;-79
2023/01/05 02:34:02;;;;;;;24.00;13.50;;;;;;;6.94;100.00;101252.63;5012756;28;20519;-79
2023/01/05 02:36:42;;;;;;;31.58;13.95;;;;;;;7.32;100.00;101321.75;5029564;28;20058;-79
2023/01/05 02:39:17;;;;;;;21.17;12.93;;;;;;;7.22;100.00;101312.59;5012704;28;20029;-79
2023/01/05 02:41:54;;;;;;;21.27;13.50;;;;;;;7.17;100.00;101313.97;5012801;28;20514;-80
2023/01/05 02:44:21;;;;;;;21.67;13.85;;;;;;;7.10;100.00;101316.13;5029299;28;20124;-79
2023/01/05 02:47:04;;;;;;;28.20;13.98;;;;;;;6.99;100.00;101294.03;5029536;28;20037;-80
2023/01/05 02:49:34;;;;;;;20.30;13.52;;;;;;;6.93;100.00;101298.75;5012860;28;20044;-79
2023/01/05 02:52:03;;;;;;;22.90;14.52;;;;;;;6.83;100.00;101309.19;5013051;28;20025;-79
2023/01/05 02:54:36;;;;;;;21.30;12.37;;;;;;;6.84;100.00;101311.88;5028924;28;20048;-79
2023/01/05 02:57:12;;;;;;;25.63;13.68;;;;;;;6.82;100.00;101298.03;5013937;28;20287;-80
2023/01/05 02:59:46;;;;;;;28.73;15.07;;;;;;;6.76;100.00;101287.38;4993433;28;20523;-78
2023/01/05 03:02:28;;;;;;;22.10;14.45;;;;;;;6.71;100.00;101279.38;5010003;28;20611;-78
2023/01/05 03:05:03;;;;;;;24.38;14.25;;;;;;;6.63;100.00;101273.75;5010043;28;20121;-78
2023/01/05 03:07:36;;;;;;;20.73;12.90;;;;;;;6.53;100.00;101244.81;5010705;28;20042;-78
2023/01/05 03:13:39;;;;;;;24.45;13.70;;;;;;;6.78;100.00;101286.69;5012080;28;20048;-78
2023/01/05 03:15:38;;;;;;;22.55;13.25;;;;;;;6.69;100.00;101287.75;5012317;28;20514;-77
2023/01/05 03:18:08;;;;;;;23.20;13.82;;;;;;;6.70;100.00;101292.09;5012060;28;20041;-78
2023/01/05 03:20:37;;;;;;;22.63;13.68;;;;;;;6.73;100.00;101294.84;5012167;28;20026;-77
2023/01/05 03:37:32;;;;;;;25.08;13.38;;;;;;;7.06;100.00;101267.06;5031738;28;20478;-77
2023/01/05 03:40:00;;;;;;;22.42;12.70;;;;;;;7.10;100.00;101261.31;5031735;28;20057;-78
2023/01/05 03:42:28;;;;;;;19.80;12.38;;;;;;;7.18;100.00;101270.41;5030225;28;20577;-78
2023/01/05 03:44:54;;;;;;;23.25;13.57;;;;;;;7.13;100.00;101253.81;5046138;28;20151;-78
2023/01/05 03:47:21;;;;;;;18.20;13.10;;;;;;;7.20;100.00;101258.56;5031291;28;20127;-77
2023/01/05 03:49:47;;;;;;;18.92;11.98;;;;;;;7.21;100.00;101252.59;5031387;28;20026;-78
2023/01/05 03:52:12;;;;;;;20.10;12.07;;;;;;;7.03;100.00;101218.06;5031301;28;20108;-77
2023/01/05 03:54:38;;;;;;;23.05;12.38;;;;;;;7.20;100.00;101253.41;5030030;28;20028;-78
2023/01/05 03:57:03;;;;;;;19.85;12.68;;;;;;;6.95;100.00;101210.78;5031122;28;20467;-78
2023/01/05 03:59:29;;;;;;;18.77;12.52;;;;;;;7.27;100.00;101264.97;5031387;28;20029;-78
2023/01/05 04:01:54;;;;;;;20.27;12.65;;;;;;;7.18;100.00;101237.03;5031153;28;20041;-77
2023/01/05 04:04:20;;;;;;;17.15;11.57;;;;;;;7.21;100.00;101242.34;5030903;28;20400;-76
2023/01/05 04:06:45;;;;;;;20.48;12.35;;;;;;;7.20;100.00;101235.44;5031191;28;20506;-77
2023/01/05 04:09:11;;;;;;;24.98;12.45;;;;;;;7.27;100.00;101249.56;5029625;28;20044;-77
2023/01/05 04:11:36;;;;;;;20.17;11.93;;;;;;;7.26;100.00;101252.91;5030869;28;20045;-77
2023/01/05 04:14:01;;;;;;;23.13;12.13;;;;;;;7.24;100.00;101249.34;5030994;28;20432;-77
2023/01/05 04:16:27;;;;;;;34.80;14.00;;;;;;;7.28;100.00;101248.75;5030986;28;20031;-77
2023/01/05 04:18:52;;;;;;;28.67;13.25;;;;;;;7.24;100.00;101242.53;5030659;28;20022;-77
2023/01/05 04:21:18;;;;;;;28.80;13.93;;;;;;;7.21;100.00;101244.91;5030958;28;20094;-77
2023/01/05 04:23:43;;;;;;;23.77;12.82;;;;;;;7.17;100.00;101239.50;5029628;28;20039;-78
2023/01/05 04:26:09;;;;;;;23.08;14.25;;;;;;;7.16;100.00;101241.16;5030610;28;20503;-78
2023/01/05 04:28:34;;;;;;;22.63;13.32;;;;;;;7.18;100.00;101237.03;5029553;28;20025;-78
2023/01/05 04:31:00;;;;;;;22.52;12.95;;;;;;;7.18;100.00;101234.44;5030818;28;20033;-78
2023/01/05 04:33:26;;;;;;;22.20;13.43;;;;;;;7.16;100.00;101228.31;5031059;28;20022;-78
2023/01/05 04:35:51;;;;;;;22.85;13.35;;;;;;;7.16;100.00;101236.03;5030754;28;20032;-78
2023/01/05 04:38:17;;;;;;;23.48;13.70;;;;;;;7.21;100.00;101226.06;5029305;28;20021;-78
2023/01/05 04:40:47;;;;;;;23.27;13.38;;;;;;;6.92;100.00;101184.91;5030573;28;20061;-78
2023/01/05 04:43:12;;;;;;;23.90;15.13;;;;;;;7.13;100.00;101220.44;5030605;28;20029;-78
2023/01/05 04:45:38;;;;;;;25.98;14.63;;;;;;;6.91;100.00;101223.31;5029291;28;20083;-78
2023/01/05 04:48:03;;;;;;;26.17;14.10;;;;;;;6.56;100.00;101222.81;5030259;28;20396;-78
2023/01/05 04:50:29;;;;;;;26.10;13.95;;;;;;;6.54;100.00;101221.84;5047612;28;20037;-78
2023/01/05 04:52:54;;;;;;;20.33;13.32;;;;;;;6.58;100.00;101231.50;5031172;28;20098;-78
2023/01/05 04:55:20;;;;;;;24.00;14.57;;;;;;;6.62;100.00;101236.03;5047918;28;20045;-78
2023/01/05 04:57:45;;;;;;;21.65;13.10;;;;;;;6.66;100.00;101241.38;5034501;28;20033;-78
2023/01/05 05:00:11;;;;;;;19.77;13.25;;;;;;;6.42;100.00;101201.38;5051768;28;20044;-78
2023/01/05 05:02:36;;;;;;;26.83;13.52;;;;;;;6.35;100.00;101209.47;5051965;28;20033;-78
2023/01/05 05:05:02;;;;;;;25.63;12.85;;;;;;;6.48;100.00;101241.97;5035233;28;20037;-78
2023/01/05 05:07:28;;;;;;;21.42;13.93;;;;;;;6.48;100.00;101234.25;5035118;28;20036;-78
2023/01/05 05:09:53;;;;;;;22.30;13.73;;;;;;;6.51;100.00;101241.28;5051863;28;20120;-78
2023/01/05 05:12:19;;;;;;;28.02;13.18;;;;;;;6.52;100.00;101237.91;5051695;28;20466;-78
2023/01/05 05:14:47;;;;;;;24.55;15.57;;;;;;;6.54;100.00;101231.19;5035068;28;20075;-78
2023/01/05 05:17:13;;;;;;;23.23;13.95;;;;;;;6.55;100.00;101245.81;5051605;28;20419;-78
2023/01/05 05:19:39;;;;;;;24.38;14.93;;;;;;;6.54;100.00;101242.38;5051797;28;20104;-78
2023/01/05 05:22:04;;;;;;;23.58;16.25;;;;;;;6.31;100.00;101240.84;5038433;28;20045;-79
2023/01/05 05:24:30;;;;;;;26.08;14.82;;;;;;;5.91;100.00;101240.69;5032727;28;20060;-79
2023/01/05 05:26:56;;;;;;;22.63;13.52;;;;;;;5.67;100.00;101248.47;5032861;28;20025;-79
2023/01/05 05:29:25;;;;;;;19.83;12.82;;;;;;;5.37;100.00;101194.34;5033855;28;20407;-79
2023/01/05 05:31:51;;;;;;;28.70;17.63;;;;;;;5.61;100.00;101237.81;5034094;28;20053;-78
2023/01/05 05:34:16;;;;;;;25.00;15.48;;;;;;;5.62;100.00;101239.56;5032825;28;20347;-79
2023/01/05 05:36:42;;;;;;;19.73;14.55;;;;;;;5.63;100.00;101244.81;5034002;28;20172;-78
2023/01/05 05:39:11;;;;;;;22.92;13.55;;;;;;;5.43;100.00;101205.00;5032263;28;20105;-78
2023/01/05 05:41:36;;;;;;;20.55;13.02;;;;;;;5.65;100.00;101227.84;5032219;28;20037;-80
2023/01/05 05:44:01;;;;;;;22.05;12.93;;;;;;;5.73;100.00;101236.09;5033429;28;20552;-77
2023/01/05 05:46:27;;;;;;;18.35;13.02;;;;;;;5.82;100.00;101238.38;5032504;28;20032;-77
2023/01/05 05:48:54;;;;;;;26.77;13.27;;;;;;;5.83;100.00;101228.25;5033492;28;20029;-76
2023/01/05 05:51:19;;;;;;;23.98;13.65;;;;;;;5.91;100.00;101235.56;5031469;28;20439;-76
2023/01/05 05:53:44;;;;;;;29.38;14.30;;;;;;;5.91;100.00;101235.56;5031824;28;20037;-77
2023/01/05 05:56:10;;;;;;;38.45;25.65;;;;;;;5.89;100.00;101232.88;5033851;28;20034;-77
2023/01/05 05:58:35;;;;;;;26.00;14.45;;;;;;;5.82;100.00;101228.13;5033842;28;20096;-77
2023/01/05 06:01:01;;;;;;;23.30;14.63;;;;;;;5.75;100.00;101226.81;5033405;28;20041;-77
2023/01/05 06:03:26;;;;;;;25.23;16.10;;;;;;;5.48;100.00;101203.66;5033626;28;20040;-77
2023/01/05 06:05:52;;;;;;;55.80;17.27;;;;;;;5.50;100.00;101222.56;5032256;28;20037;-77
2023/01/05 06:08:17;;;;;;;50.85;17.73;;;;;;;5.22;100.00;101191.59;5032777;28;20451;-77
2023/01/05 06:10:43;;;;;;;64.70;19.42;;;;;;;5.27;100.00;101218.41;5032122;28;20087;-77
2023/01/05 06:13:08;;;;;;;52.17;22.38;;;;;;;5.28;100.00;101219.28;5020089;28;20029;-78
2023/01/05 06:15:34;;;;;;;106.90;20.08;;;;;;;5.28;100.00;101214.16;5063509;28;20056;-77
2023/01/05 06:17:59;;;;;;;90.65;22.27;;;;;;;5.34;100.00;101210.34;5033496;28;20036;-75
2023/01/05 06:20:25;;;;;;;63.10;17.58;;;;;;;5.25;100.00;101202.03;5033154;28;20396;-75
2023/01/05 06:22:50;;;;;;;42.10;16.30;;;;;;;4.79;100.00;101129.72;5032640;28;20032;-76
2023/01/05 06:25:16;;;;;;;71.70;16.88;;;;;;;5.16;100.00;101193.72;5032888;28;20037;-77
2023/01/05 06:27:41;;;;;;;39.35;17.02;;;;;;;5.11;100.00;101195.94;5032733;28;20080;-73
2023/01/05 06:30:07;;;;;;;33.15;16.90;;;;;;;5.15;100.00;101197.94;5032168;28;20044;-73
2023/01/05 06:32:32;;;;;;;28.65;17.20;;;;;;;4.87;100.00;101143.91;5030380;28;20404;-74
2023/01/05 06:34:58;;;;;;;46.80;19.85;;;;;;;5.21;100.00;101196.59;5030976;28;20411;-78
2023/01/05 06:37:23;;;;;;;46.95;23.10;;;;;;;5.22;100.00;101191.59;5032803;28;20029;-75
2023/01/05 06:39:48;;;;;;;48.15;19.67;;;;;;;5.22;100.00;101199.28;5031115;28;20070;-78
2023/01/05 06:42:14;;;;;;;85.78;32.85;;;;;;;5.04;100.00;101177.50;5031484;28;20036;-76
2023/01/05 06:44:41;;;;;;;91.82;28.90;;;;;;;4.81;100.00;101185.31;5032404;28;20622;-76
2023/01/05 06:47:06;;;;;;;93.97;26.73;;;;;;;4.71;100.00;101185.44;5032669;28;20029;-77
2023/01/05 06:49:32;;;;;;;102.82;28.08;;;;;;;4.82;100.00;101196.44;5031391;28;20395;-77
2023/01/05 06:51:57;;;;;;;81.90;25.35;;;;;;;4.91;100.00;101203.88;5031397;28;20498;-78
2023/01/05 06:54:23;;;;;;;123.88;24.75;;;;;;;4.85;100.00;101192.41;5032614;28;20029;-78
2023/01/05 06:56:48;;;;;;;116.55;25.38;;;;;;;4.56;100.00;101151.97;5031030;28;20543;-77
2023/01/05 06:59:14;;;;;;;57.88;23.60;;;;;;;4.78;100.00;101194.44;5032012;28;20038;-77
2023/01/05 07:01:39;;;;;;;70.75;24.02;;;;;;;4.50;100.00;101154.97;5032283;28;20144;-77
2023/01/05 07:04:05;;;;;;;73.97;23.17;;;;;;;4.70;100.00;101192.22;5032284;28;20034;-77
2023/01/05 07:06:30;;;;;;;71.93;23.58;;;;;;;4.63;100.00;101194.22;5032065;28;20535;-77
2023/01/05 07:08:56;;;;;;;139.02;26.90;;;;;;;4.59;100.00;101202.47;5031972;28;20487;-76
2023/01/05 07:11:21;;;;;;;100.38;27.13;;;;;;;4.61;100.00;101194.13;5032023;28;20404;-77
2023/01/05 07:13:48;;;;;;;129.50;29.58;;;;;;;4.67;100.00;101185.97;5031926;28;20025;-76
2023/01/05 07:16:14;;;;;;;85.10;28.77;;;;;;;4.79;100.00;101198.78;5031822;28;20041;-76
2023/01/05 07:18:39;;;;;;;136.23;35.67;;;;;;;4.78;100.00;101195.31;5030553;28;20534;-77
2023/01/05 07:21:05;;;;;;;97.95;31.23;;;;;;;4.84;100.00;101198.31;5030137;28;20033;-76
2023/01/05 07:23:30;;;;;;;100.32;28.63;;;;;;;4.67;100.00;101192.00;5031863;28;20079;-76
2023/01/05 07:25:59;;;;;;;116.35;29.83;;;;;;;4.70;100.00;101192.22;5031897;28;20033;-76
2023/01/05 07:28:25;;;;;;;113.35;28.75;;;;;;;4.46;100.00;101149.50;5030317;28;20121;-76
2023/01/05 07:30:51;;;;;;;101.15;29.08;;;;;;;4.52;100.00;101152.50;5031850;28;20120;-76
2023/01/05 07:33:16;;;;;;;84.18;29.88;;;;;;;4.68;100.00;101178.41;5030507;28;20071;-76
2023/01/05 07:35:42;;;;;;;95.45;42.05;;;;;;;4.61;100.00;101139.50;5031843;28;20037;-76
2023/01/05 07:38:07;;;;;;;96.25;33.90;;;;;;;4.77;100.00;101138.94;5031405;28;20139;-75
2023/01/05 07:40:33;;;;;;;106.72;31.35;;;;;;;5.08;100.00;101177.81;5031158;28;20059;-75
2023/01/05 07:42:58;;;;;;;124.78;36.70;;;;;;;5.16;100.00;101175.81;5031229;28;20029;-75
2023/01/05 07:45:24;;;;;;;104.20;37.97;;;;;;;5.28;100.00;101179.22;5031449;28;20117;-75
2023/01/05 07:47:50;;;;;;;114.68;33.80;;;;;;;5.32;100.00;101176.09;5031488;28;20029;-75
2023/01/05 07:50:15;;;;;;;85.45;32.25;;;;;;;5.14;100.00;101123.59;5031480;28;20041;-75
2023/01/05 07:52:41;;;;;;;73.03;30.35;;;;;;;5.34;100.00;101166.81;5030069;28;20033;-74
2023/01/05 07:55:07;;;;;;;83.80;30.85;;;;;;;4.90;100.00;101081.81;5031484;28;20026;-76
2023/01/05 07:57:32;;;;;;;72.40;32.38;;;;;;;5.34;100.00;101166.81;5031286;28;20025;-75
2023/01/05 07:59:57;;;;;;;124.80;38.63;;;;;;;5.37;100.00;101176.41;5031223;28;20041;-75
2023/01/05 08:02:23;;;;;;;107.50;39.67;;;;;;;5.44;100.00;101172.59;5031142;28;20036;-75
2023/01/05 08:04:48;;;;;;;112.15;40.05;;;;;;;5.46;100.00;101171.91;5031172;28;20139;-75
2023/01/05 08:07:14;;;;;;;101.10;45.47;;;;;;;5.59;100.00;101159.94;5030874;28;20033;-75
2023/01/05 08:12:27;;;;;;;95.28;44.72;;;;;;;5.28;100.00;101097.31;5031039;28;20104;-75
2023/01/05 08:14:52;;;;;;;93.70;43.20;;;;;;;5.70;100.00;101155.56;5030981;28;20034;-75
2023/01/05 08:17:18;;;;;;;101.43;45.13;;;;;;;5.70;100.00;101156.44;5030833;28;20022;-77
2023/01/05 08:19:43;;;;;;;90.78;40.88;;;;;;;5.69;100.00;101140.97;5029435;28;20694;-76
2023/01/05 08:22:09;;;;;;;92.97;43.47;;;;;;;5.67;100.00;101164.81;5030486;28;20036;-76
2023/01/05 08:24:34;;;;;;;99.88;45.08;;;;;;;5.74;100.00;101157.53;5030602;28;20057;-77
2023/01/05 08:26:59;;;;;;;95.65;44.92;;;;;;;5.67;100.00;101140.88;5029605;28;20087;-76
2023/01/05 08:29:25;;;;;;;100.07;44.15;;;;;;;5.75;100.00;101151.63;5030832;28;20033;-76
2023/01/05 08:31:50;;;;;;;111.55;46.30;;;;;;;5.80;100.00;101140.88;5030187;28;20411;-77
2023/01/05 08:34:16;;;;;;;99.65;46.97;;;;;;;5.79;100.00;101133.09;5030538;28;20503;-76
2023/01/05 08:36:41;;;;;;;108.38;46.10;;;;;;;5.86;100.00;101132.75;5030459;28;20060;-77
2023/01/05 08:39:09;;;;;;;106.18;45.22;;;;;;;5.88;100.00;101128.63;5030098;28;20033;-77
2023/01/05 08:41:38;;;;;;;116.22;45.90;;;;;;;5.94;100.00;101138.38;5027758;28;20440;-77
2023/01/05 08:44:14;;;;;;;97.10;43.38;;;;;;;5.97;100.00;101130.91;5020061;28;20049;-75
2023/01/05 08:46:39;;;;;;;98.45;42.10;;;;;;;5.95;100.00;101133.34;5012523;28;20037;-76
2023/01/05 08:49:08;;;;;;;91.65;40.08;;;;;;;5.98;100.00;101123.34;5027111;28;20038;-76
2023/01/05 08:51:34;;;;;;;101.05;43.25;;;;;;;5.98;100.00;101112.16;5027518;28;20139;-77
2023/01/05 08:53:59;;;;;;;96.55;42.85;;;;;;;6.04;100.00;101110.03;5028012;28;20569;-76
2023/01/05 08:56:25;;;;;;;94.65;39.88;;;;;;;6.06;100.00;101102.44;5027807;28;20563;-76
2023/01/05 08:58:54;;;;;;;94.50;46.53;;;;;;;6.18;100.00;101110.94;5027976;28;20084;-76
2023/01/05 09:01:20;;;;;;;94.05;40.22;;;;;;;6.24;100.00;101095.97;5027874;28;20116;-76
2023/01/05 09:03:47;;;;;;;81.22;36.08;;;;;;;6.31;100.00;101094.66;5028073;28;20037;-75
2023/01/05 09:06:12;;;;;;;85.65;39.38;;;;;;;6.32;100.00;101091.31;5027777;28;20622;-76
2023/01/05 09:08:40;;;;;;;88.10;38.40;;;;;;;6.40;100.00;101087.53;5027797;28;20045;-75
2023/01/05 09:11:18;;;;;;;93.70;37.83;;;;;;;6.21;100.00;101041.91;5027859;28;20156;-74
2023/01/05 09:13:49;;;;;;;99.55;38.63;;;;;;;6.39;100.00;101077.19;5029958;28;20045;-74
2023/01/05 09:16:18;;;;;;;90.47;37.72;;;;;;;6.35;100.00;101076.09;5030101;28;20029;-74
2023/01/05 09:18:44;;;;;;;85.57;36.47;;;;;;;6.38;100.00;101065.16;5030192;28;20415;-75
2023/01/05 09:21:11;;;;;;;104.32;42.00;;;;;;;6.41;100.00;101060.25;5030014;28;20059;-74
2023/01/05 09:23:38;;;;;;;101.40;39.40;;;;;;;6.40;100.00;101053.31;5030098;28;20043;-75
2023/01/05 09:26:05;;;;;;;106.57;41.95;;;;;;;6.42;100.00;101044.06;5030102;28;20030;-77
2023/01/05 09:28:31;;;;;;;101.25;40.17;;;;;;;6.42;100.00;101044.94;5030182;28;20112;-77
2023/01/05 09:30:56;;;;;;;106.38;42.00;;;;;;;6.44;100.00;101045.03;5029472;28;20033;-78
2023/01/05 09:33:22;;;;;;;109.68;44.85;;;;;;;6.36;100.00;101021.47;5028806;28;20030;-78
2023/01/05 09:35:54;;;;;;;109.60;45.08;;;;;;;6.48;100.00;101029.94;5029840;28;20033;-78
2023/01/05 09:38:21;;;;;;;114.30;46.42;;;;;;;6.54;100.00;101006.34;5030097;28;20029;-78
2023/01/05 09:40:48;;;;;;;118.65;50.17;;;;;;;6.54;100.00;101006.34;5028505;28;20410;-76
2023/01/05 09:43:24;;;;;;;115.53;45.58;;;;;;;6.59;100.00;101002.41;5030475;28;20041;-76
2023/01/05 09:45:50;;;;;;;120.22;47.53;;;;;;;6.56;100.00;100989.34;5033697;28;20021;-74
2023/01/05 09:48:17;;;;;;;157.48;57.10;;;;;;;6.54;100.00;100990.97;5033416;28;20103;-74
2023/01/05 09:50:45;;;;;;;137.80;57.13;;;;;;;6.60;100.00;100988.78;5032331;28;20030;-74
2023/01/05 09:53:13;;;;;;;138.45;61.28;;;;;;;6.66;100.00;100984.81;5033496;28;20029;-75
2023/01/05 09:55:41;;;;;;;153.50;69.63;;;;;;;6.72;100.00;100978.34;5033538;28;20021;-76
2023/01/05 09:58:15;;;;;;;142.50;60.47;;;;;;;6.68;100.00;100954.97;5033359;28;20080;-75
2023/01/05 10:00:44;;;;;;;152.88;65.00;;;;;;;6.75;100.00;100968.28;5033029;28;20127;-77
2023/01/05 10:03:18;;;;;;;163.65;68.93;;;;;;;6.77;100.00;100963.25;5033023;28;20407;-74
2023/01/05 10:05:46;;;;;;;156.80;56.95;;;;;;;6.40;100.00;100884.06;5032063;28;20041;-77
2023/01/05 10:08:39;;;;;;;157.40;62.80;;;;;;;6.82;100.00;100949.00;5032946;28;20484;-78
2023/01/05 10:14:07;;;;;;;158.23;60.83;;;;;;;6.86;100.00;100929.53;5031065;28;20072;-76
2023/01/05 10:16:33;;;;;;;167.60;66.70;;;;;;;6.84;100.00;100923.44;5027355;28;20699;-75
2023/01/05 10:19:00;;;;;;;167.57;66.53;;;;;;;6.88;100.00;100920.25;5031337;28;20041;-74
2023/01/05 10:21:48;;;;;;;225.63;126.35;;;;;;;7.02;100.00;100910.81;5032069;28;20025;-78
2023/01/05 10:24:32;;;;;;;187.48;90.10;;;;;;;7.27;100.00;100913.09;4994199;28;20125;-77
2023/01/05 10:27:06;;;;;;;171.98;68.95;;;;;;;7.41;100.00;100883.97;4992411;28;20417;-77
2023/01/05 10:29:45;;;;;;;171.55;75.47;;;;;;;7.55;100.00;100882.16;5010496;28;20101;-77
2023/01/05 10:32:25;;;;;;;162.60;67.53;;;;;;;7.76;100.00;100876.41;5010157;28;20065;-75
2023/01/05 10:34:55;;;;;;;;;;;;;;;7.88;100.00;100877.09;4994012;28;20037;-73
2023/01/05 10:37:26;;;;;;;156.75;66.30;;;;;;;8.06;100.00;100858.31;5010106;28;19917;-75
2023/01/05 10:40:15;;;;;;;145.52;65.82;;;;;;;8.19;100.00;100855.59;5009913;28;20056;-76
2023/01/05 10:42:53;;;;;;;136.18;64.82;;;;;;;8.44;100.00;100856.88;4996989;28;20424;-76
2023/01/05 10:45:20;;;;;;;135.57;62.55;;;;;;;8.58;100.00;100848.22;5026314;28;20168;-74
2023/01/05 10:47:48;;;;;;;136.07;62.45;;;;;;;8.84;100.00;100853.78;5009818;28;20048;-76
2023/01/05 10:50:25;;;;;;;116.47;60.47;;;;;;;9.01;100.00;100854.63;5009707;28;20049;-76
2023/01/05 10:52:52;;;;;;;122.03;59.35;;;;;;;9.12;100.00;100842.28;4996814;28;20508;-76
2023/01/05 10:55:19;;;;;;;101.10;53.00;;;;;;;9.14;100.00;100824.34;5009247;28;20053;-75
2023/01/05 10:57:45;;;;;;;96.30;50.67;;;;;;;9.47;100.00;100837.03;5009600;28;20099;-75
2023/01/05 11:00:20;;;;;;;95.13;51.72;;;;;;;9.61;100.00;100827.38;5009168;28;20129;-76
2023/01/05 11:03:06;;;;;;;85.63;47.95;;;;;;;9.59;100.00;100785.19;5026996;28;20037;-74
2023/01/05 11:05:37;;;;;;;73.50;44.60;;;;;;;9.93;100.00;100816.00;5033649;28;20032;-75
2023/01/05 11:08:05;;;;;;;81.15;45.72;;;;;;;9.85;100.00;100782.09;5032642;28;20090;-77
2023/01/05 11:10:47;;;;;;;70.45;40.20;;;;;;;10.05;100.00;100792.41;5032198;28;20037;-81
2023/01/05 11:13:15;;;;;;;65.70;40.45;;;;;;;10.27;100.00;100801.09;5046468;28;20514;-84
2023/01/05 11:15:47;;;;;;;61.72;38.80;;;;;;;10.39;100.00;100791.34;5031180;28;20067;-79
2023/01/05 11:18:31;;;;;;;58.30;38.15;;;;;;;10.54;100.00;100780.78;5032704;28;20029;-80
2023/01/05 11:21:35;;;;;;;55.90;36.05;;;;;;;10.74;100.00;100789.38;5029918;28;20095;-80
2023/01/05 11:24:02;;;;;;;52.47;36.63;;;;;;;10.70;100.00;100755.59;5031443;28;20618;-81
2023/01/05 11:26:33;;;;;;;55.88;36.17;;;;;;;10.75;100.00;100749.78;5048752;28;20063;-80
2023/01/05 11:29:07;;;;;;;45.40;32.88;;;;;;;11.06;100.00;100791.50;5031775;28;20025;-79
2023/01/05 11:31:45;;;;;;;46.05;31.33;;;;;;;11.06;100.00;100783.75;5028706;28;20493;-81
2023/01/05 11:34:23;;;;;;;42.70;31.48;;;;;;;11.10;100.00;100770.13;5035025;28;20188;-79
2023/01/05 11:36:57;;;;;;;43.13;31.38;;;;;;;10.94;100.00;100730.78;5048230;28;20108;-80
2023/01/05 11:39:45;;;;;;;43.50;30.27;;;;;;;11.11;100.00;100759.84;5031433;28;20131;-81
2023/01/05 11:42:19;;;;;;;42.55;29.90;;;;;;;11.12;100.00;100751.28;5031149;28;20029;-79
2023/01/05 11:44:51;;;;;;;42.30;29.27;;;;;;;11.20;100.00;100761.03;5047867;28;20048;-83
2023/01/05 11:47:23;;;;;;;41.13;29.25;;;;;;;11.24;100.00;100743.13;5035927;28;20029;-81
2023/01/05 11:49:56;;;;;;;42.47;29.63;;;;;;;11.21;100.00;100740.41;5029515;28;20025;-80